Time;durP1;ratioP1;P1;durP2;ratioP2;P2;SDS_P1;SDS_P2;PMS_P1;PMS_P2;Temp;Humidity;BMP_temperature;BMP_pressure;BME280_temperature;BME280_humidity;BME280_pressure;Samples;Min_cycle;Max_cycle;Signal;HPM_P1;HPM_P2
2021/09/21 00:17:22;;;;;;;2.78;2.25;;;;;;;;;;4554246;28;20104;-66
2021/09/21 00:19:48;;;;;;;3.15;2.70;;;;;;;;;;4149075;34;20755;-67
2021/09/21 00:22:14;;;;;;;3.90;2.53;;;;;;;;;;4150320;34;20558;-66
2021/09/21 00:24:40;;;;;;;5.18;2.40;;;;;;;;;;4150633;34;20130;-66
2021/09/21 00:27:06;;;;;;;10.07;2.30;;;;;;;;;;4150473;34;20125;-66
2021/09/21 00:29:32;;;;;;;4.53;2.33;;;;;;;;;;4150380;34;20511;-65
2021/09/21 00:32:01;;;;;;;6.07;2.60;;;;;;;;;;4150367;34;20126;-66
2021/09/21 00:34:39;;;;;;;7.60;2.55;;;;;;;;;;4150557;34;20135;-66
2021/09/21 00:37:06;;;;;;;8.68;2.78;;;;;;;;;;4150483;34;20138;-66
2021/09/21 00:39:32;;;;;;;4.45;2.03;;;;;;;;;;4150434;34;20142;-66
2021/09/21 00:41:57;;;;;;;6.55;2.67;;;;;;;;;;4150309;34;20162;-66
2021/09/21 00:44:23;;;;;;;8.32;2.40;;;;;;;;;;4149014;34;20562;-66
2021/09/21 00:46:49;;;;;;;7.97;2.25;;;;;;;;;;4150718;34;20201;-66
2021/09/21 00:49:15;;;;;;;9.65;2.40;;;;;;;;;;4150181;34;20107;-66
2021/09/21 00:51:42;;;;;;;14.55;2.90;;;;;;;;;;4148973;34;20178;-66
2021/09/21 00:54:08;;;;;;;9.00;3.10;;;;;;;;;;4149043;34;20125;-65
2021/09/21 00:56:33;;;;;;;8.40;2.37;;;;;;;;;;4150567;34;20106;-66
2021/09/21 00:58:59;;;;;;;5.00;2.33;;;;;;;;;;4148840;34;20111;-66
2021/09/21 01:01:25;;;;;;;4.18;2.50;;;;;;;;;;4150310;34;20127;-66
2021/09/21 01:03:51;;;;;;;8.27;2.83;;;;;;;;;;4150196;34;20113;-66
2021/09/21 01:06:17;;;;;;;2.58;2.20;;;;;;;;;;4149029;34;20142;-66
2021/09/21 01:08:43;;;;;;;4.47;2.50;;;;;;;;;;4150065;34;20190;-66
2021/09/21 01:11:10;;;;;;;5.68;2.30;;;;;;;;;;4150222;34;20111;-66
2021/09/21 01:13:36;;;;;;;3.47;2.50;;;;;;;;;;4150309;34;20123;-66
2021/09/21 01:16:02;;;;;;;5.85;2.50;;;;;;;;;;4150108;34;20146;-65
2021/09/21 01:18:28;;;;;;;5.97;2.40;;;;;;;;;;4148280;34;20534;-66
2021/09/21 01:21:04;;;;;;;4.32;2.45;;;;;;;;;;4148680;34;20123;-66
2021/09/21 01:23:31;;;;;;;8.23;2.72;;;;;;;;;;4149960;34;20530;-66
2021/09/21 01:25:57;;;;;;;4.45;2.50;;;;;;;;;;4150104;34;20126;-66
2021/09/21 01:28:23;;;;;;;4.57;3.00;;;;;;;;;;4149768;34;20129;-66
2021/09/21 01:30:49;;;;;;;7.82;3.00;;;;;;;;;;4150081;34;20525;-69
2021/09/21 01:33:19;;;;;;;8.57;2.78;;;;;;;;;;4150163;34;20193;-69
2021/09/21 01:35:45;;;;;;;6.45;2.60;;;;;;;;;;4149928;34;20207;-69
2021/09/21 01:38:11;;;;;;;6.40;2.60;;;;;;;;;;4150043;34;20120;-66
2021/09/21 01:40:37;;;;;;;9.85;3.65;;;;;;;;;;4148498;34;20130;-66
2021/09/21 01:43:03;;;;;;;6.55;2.42;;;;;;;;;;4149860;34;20103;-66
2021/09/21 01:45:29;;;;;;;5.87;3.20;;;;;;;;;;4149810;34;20130;-67
2021/09/21 01:47:57;;;;;;;5.00;2.80;;;;;;;;;;4149952;34;20455;-66
2021/09/21 01:50:32;;;;;;;12.65;2.80;;;;;;;;;;4149745;34;20188;-67
2021/09/21 01:53:27;;;;;;;7.60;3.67;;;;;;;;;;4148654;34;20102;-66
2021/09/21 01:58:46;;;;;;;5.90;2.67;;;;;;;;;;4149618;34;20170;-66
2021/09/21 02:01:05;;;;;;;3.70;2.70;;;;;;;;;;4149668;34;20199;-66
2021/09/21 02:03:30;;;;;;;3.90;2.45;;;;;;;;;;4148190;34;20146;-65
2021/09/21 02:05:56;;;;;;;3.05;2.65;;;;;;;;;;4149908;34;20307;-65
2021/09/21 02:08:22;;;;;;;6.68;2.83;;;;;;;;;;4149275;34;20119;-66
2021/09/21 02:10:48;;;;;;;8.18;2.58;;;;;;;;;;4149722;34;20110;-66
2021/09/21 02:13:14;;;;;;;6.10;3.12;;;;;;;;;;4149323;34;20127;-66
2021/09/21 02:15:40;;;;;;;5.40;3.00;;;;;;;;;;4148116;34;20142;-65
2021/09/21 02:18:07;;;;;;;2.95;2.65;;;;;;;;;;4147870;34;20111;-66
2021/09/21 02:20:32;;;;;;;5.40;2.67;;;;;;;;;;4148332;34;20087;-66
2021/09/21 02:22:58;;;;;;;6.78;3.30;;;;;;;;;;4149369;34;20210;-66
2021/09/21 02:25:25;;;;;;;5.45;2.70;;;;;;;;;;4149651;34;20127;-66
2021/09/21 02:27:50;;;;;;;4.30;2.92;;;;;;;;;;4149269;34;20215;-69
2021/09/21 02:30:16;;;;;;;3.92;2.70;;;;;;;;;;4149359;34;20119;-66
2021/09/21 02:32:42;;;;;;;6.43;3.97;;;;;;;;;;4149367;34;20648;-66
2021/09/21 02:35:08;;;;;;;3.47;2.70;;;;;;;;;;4149417;34;20130;-66
2021/09/21 02:37:34;;;;;;;5.45;3.00;;;;;;;;;;4149384;34;20107;-66
2021/09/21 02:40:00;;;;;;;5.70;2.95;;;;;;;;;;4151028;34;20219;-66
2021/09/21 02:42:26;;;;;;;4.10;2.72;;;;;;;;;;4150081;34;20136;-68
2021/09/21 02:44:52;;;;;;;10.88;2.80;;;;;;;;;;4150358;34;20125;-69
2021/09/21 02:47:18;;;;;;;4.72;2.53;;;;;;;;;;4151389;34;20118;-69
2021/09/21 02:49:44;;;;;;;10.35;2.75;;;;;;;;;;4151338;34;20111;-69
2021/09/21 02:52:10;;;;;;;3.67;2.90;;;;;;;;;;4151312;34;20192;-69
2021/09/21 02:54:35;;;;;;;6.40;3.50;;;;;;;;;;4151274;34;20545;-69
2021/09/21 02:57:01;;;;;;;4.00;2.70;;;;;;;;;;4150003;34;20121;-68
2021/09/21 02:59:27;;;;;;;9.77;3.17;;;;;;;;;;4151238;34;20182;-68
2021/09/21 03:01:53;;;;;;;6.85;2.70;;;;;;;;;;4151354;34;20135;-68
2021/09/21 03:04:28;;;;;;;6.05;3.05;;;;;;;;;;4151111;34;20179;-69
2021/09/21 03:07:03;;;;;;;4.95;3.10;;;;;;;;;;4151530;34;20095;-69
2021/09/21 03:12:22;;;;;;;5.18;2.40;;;;;;;;;;4151121;34;20137;-68
2021/09/21 03:17:33;;;;;;;13.73;3.00;;;;;;;;;;4149812;34;20514;-66
2021/09/21 03:20:00;;;;;;;7.55;3.83;;;;;;;;;;4150772;34;20104;-66
2021/09/21 03:22:26;;;;;;;5.57;2.90;;;;;;;;;;4150856;34;20131;-66
2021/09/21 03:24:53;;;;;;;7.25;2.97;;;;;;;;;;4151052;34;20142;-71
2021/09/21 03:27:19;;;;;;;4.15;2.75;;;;;;;;;;4149504;34;20094;-72
2021/09/21 03:29:45;;;;;;;3.67;2.85;;;;;;;;;;4149738;34;20101;-71
2021/09/21 03:32:11;;;;;;;3.12;2.83;;;;;;;;;;4149541;34;20166;-74
2021/09/21 03:34:37;;;;;;;3.37;3.08;;;;;;;;;;4151025;34;20568;-72
2021/09/21 03:37:04;;;;;;;4.37;3.08;;;;;;;;;;4151022;34;20445;-68
2021/09/21 03:39:30;;;;;;;3.95;2.97;;;;;;;;;;4149630;34;20119;-70
2021/09/21 03:41:56;;;;;;;4.37;3.15;;;;;;;;;;4151667;34;20557;-72
2021/09/21 03:44:22;;;;;;;7.68;2.83;;;;;;;;;;4150899;34;20123;-70
2021/09/21 03:46:49;;;;;;;8.43;3.50;;;;;;;;;;4151124;34;20115;-70
2021/09/21 03:49:15;;;;;;;6.32;3.28;;;;;;;;;;4149374;34;20284;-69
2021/09/21 03:51:41;;;;;;;4.57;3.30;;;;;;;;;;4150719;34;20121;-68
2021/09/21 03:54:09;;;;;;;7.57;2.62;;;;;;;;;;4150616;34;20551;-69
2021/09/21 03:56:36;;;;;;;4.03;3.10;;;;;;;;;;4150811;34;20110;-69
2021/09/21 03:59:04;;;;;;;6.05;3.00;;;;;;;;;;4150899;34;20119;-68
2021/09/21 04:01:30;;;;;;;4.70;3.10;;;;;;;;;;4149564;34;20122;-69
2021/09/21 04:03:56;;;;;;;4.70;3.20;;;;;;;;;;4150907;34;20242;-68
2021/09/21 04:06:21;;;;;;;3.40;3.03;;;;;;;;;;4150725;34;20535;-71
2021/09/21 04:08:47;;;;;;;4.12;3.10;;;;;;;;;;4150592;34;20200;-70
2021/09/21 04:11:13;;;;;;;6.00;4.22;;;;;;;;;;4149119;34;20526;-70
2021/09/21 04:13:39;;;;;;;6.68;3.78;;;;;;;;;;4149516;34;20099;-70
2021/09/21 04:16:05;;;;;;;7.80;3.30;;;;;;;;;;4150317;34;20119;-73
2021/09/21 04:18:31;;;;;;;7.30;3.12;;;;;;;;;;4150273;34;20123;-72
2021/09/21 04:20:57;;;;;;;5.37;3.30;;;;;;;;;;4150614;34;20127;-71
2021/09/21 04:23:23;;;;;;;7.03;3.15;;;;;;;;;;4150454;34;20139;-72
2021/09/21 04:25:49;;;;;;;3.72;2.85;;;;;;;;;;4150864;34;20118;-72
2021/09/21 04:28:14;;;;;;;5.97;2.83;;;;;;;;;;4150550;34;20579;-70
2021/09/21 04:30:42;;;;;;;8.13;2.92;;;;;;;;;;4150501;34;20103;-72
2021/09/21 04:33:08;;;;;;;5.28;4.00;;;;;;;;;;4150042;34;20122;-70
2021/09/21 04:35:34;;;;;;;9.02;4.78;;;;;;;;;;4165848;34;20107;-72
2021/09/21 04:38:00;;;;;;;6.53;5.18;;;;;;;;;;4171669;34;20133;-74
2021/09/21 04:40:26;;;;;;;6.12;3.80;;;;;;;;;;4150526;34;20102;-72
2021/09/21 04:42:51;;;;;;;5.15;3.58;;;;;;;;;;4150660;34;20131;-72
2021/09/21 04:45:17;;;;;;;7.28;3.55;;;;;;;;;;4150614;34;20203;-72
2021/09/21 04:47:43;;;;;;;5.22;3.65;;;;;;;;;;4151072;34;20111;-70
2021/09/21 04:50:09;;;;;;;5.68;3.67;;;;;;;;;;4150479;34;20211;-72
2021/09/21 04:52:35;;;;;;;4.00;3.20;;;;;;;;;;4148338;34;20127;-72
2021/09/21 04:55:01;;;;;;;4.72;3.40;;;;;;;;;;4148231;34;20474;-73
2021/09/21 04:57:27;;;;;;;6.03;3.17;;;;;;;;;;4150396;34;20204;-72
2021/09/21 04:59:52;;;;;;;4.40;3.12;;;;;;;;;;4171398;34;20113;-72
2021/09/21 05:02:18;;;;;;;7.45;3.58;;;;;;;;;;4148332;34;20126;-71
2021/09/21 05:04:44;;;;;;;4.32;3.50;;;;;;;;;;4148345;34;20129;-69
2021/09/21 05:07:10;;;;;;;6.25;4.18;;;;;;;;;;4148334;34;20151;-67
2021/09/21 05:09:36;;;;;;;5.43;3.35;;;;;;;;;;4148166;34;20143;-67
2021/09/21 05:12:02;;;;;;;3.90;2.90;;;;;;;;;;4148671;34;20744;-67
2021/09/21 05:14:29;;;;;;;5.10;3.25;;;;;;;;;;4149974;34;20103;-68
2021/09/21 05:16:55;;;;;;;3.85;3.00;;;;;;;;;;4171173;34;20099;-67
2021/09/21 05:19:21;;;;;;;4.90;3.20;;;;;;;;;;4150094;34;20119;-68
2021/09/21 05:21:47;;;;;;;5.18;3.45;;;;;;;;;;4150316;34;20134;-68
2021/09/21 05:24:13;;;;;;;3.62;2.97;;;;;;;;;;4150050;34;20145;-68
2021/09/21 05:26:39;;;;;;;4.20;3.30;;;;;;;;;;4150192;34;20175;-68
2021/09/21 05:29:04;;;;;;;5.68;3.72;;;;;;;;;;4149903;34;20212;-68
2021/09/21 05:31:31;;;;;;;3.85;3.05;;;;;;;;;;4150056;34;20173;-68
2021/09/21 05:33:57;;;;;;;7.87;3.72;;;;;;;;;;4150268;34;20193;-68
2021/09/21 05:36:22;;;;;;;5.30;4.07;;;;;;;;;;4137287;34;20499;-67
2021/09/21 05:38:48;;;;;;;4.70;3.25;;;;;;;;;;4150140;34;20095;-67
2021/09/21 05:41:14;;;;;;;4.45;3.62;;;;;;;;;;4149956;34;20126;-68
2021/09/21 05:43:40;;;;;;;5.30;4.40;;;;;;;;;;4150091;34;20130;-68
2021/09/21 05:46:06;;;;;;;4.43;3.87;;;;;;;;;;4150049;34;20127;-68
2021/09/21 05:48:32;;;;;;;4.25;3.40;;;;;;;;;;4150156;34;20231;-67
2021/09/21 05:50:58;;;;;;;6.87;3.53;;;;;;;;;;4150329;34;20587;-67
2021/09/21 05:53:24;;;;;;;6.07;3.80;;;;;;;;;;4149886;34;20107;-68
2021/09/21 05:55:50;;;;;;;4.35;3.95;;;;;;;;;;4149200;34;20212;-68
2021/09/21 05:58:16;;;;;;;7.70;4.50;;;;;;;;;;4148156;34;20500;-68
2021/09/21 06:00:42;;;;;;;7.05;5.10;;;;;;;;;;4149782;34;20253;-68
2021/09/21 06:03:08;;;;;;;7.05;4.95;;;;;;;;;;4149749;34;20118;-68
2021/09/21 06:05:34;;;;;;;7.15;4.25;;;;;;;;;;4149534;34;20166;-67
2021/09/21 06:08:00;;;;;;;6.70;4.95;;;;;;;;;;4149492;34;20177;-67
2021/09/21 06:10:27;;;;;;;7.97;5.50;;;;;;;;;;4148033;34;20226;-68
2021/09/21 06:12:53;;;;;;;7.00;4.80;;;;;;;;;;4149700;34;20109;-67
2021/09/21 06:15:19;;;;;;;6.82;4.78;;;;;;;;;;4151079;34;20103;-67
2021/09/21 06:17:46;;;;;;;5.82;4.20;;;;;;;;;;4151396;34;20103;-67
2021/09/21 06:20:12;;;;;;;5.35;4.30;;;;;;;;;;4151620;34;20103;-67
2021/09/21 06:22:39;;;;;;;5.45;3.55;;;;;;;;;;4151633;34;20126;-68
2021/09/21 06:25:06;;;;;;;8.63;3.60;;;;;;;;;;4151493;34;20228;-67
2021/09/21 06:27:32;;;;;;;4.47;3.83;;;;;;;;;;4150246;34;20098;-68
2021/09/21 06:29:58;;;;;;;6.72;3.35;;;;;;;;;;4151331;34;20106;-67
2021/09/21 06:32:24;;;;;;;6.45;3.65;;;;;;;;;;4151636;34;20107;-67
2021/09/21 06:34:50;;;;;;;4.47;3.67;;;;;;;;;;4149516;34;20103;-65
2021/09/21 06:37:16;;;;;;;4.35;3.95;;;;;;;;;;4151564;34;20107;-65
2021/09/21 06:39:42;;;;;;;7.45;3.90;;;;;;;;;;4151722;34;20207;-65
2021/09/21 06:42:08;;;;;;;5.57;3.87;;;;;;;;;;4151625;34;20115;-64
2021/09/21 06:44:34;;;;;;;4.30;3.45;;;;;;;;;;4151293;34;20187;-65
2021/09/21 06:47:00;;;;;;;3.95;3.20;;;;;;;;;;4151641;34;20546;-64
2021/09/21 06:49:26;;;;;;;6.18;4.07;;;;;;;;;;4151308;34;20579;-65
2021/09/21 06:51:52;;;;;;;6.25;3.83;;;;;;;;;;4151127;34;20202;-65
2021/09/21 06:54:18;;;;;;;6.25;4.07;;;;;;;;;;4151555;34;20114;-65
2021/09/21 06:56:44;;;;;;;7.18;4.10;;;;;;;;;;4151111;34;20569;-65
2021/09/21 06:59:09;;;;;;;4.62;3.70;;;;;;;;;;4151264;34;20208;-65
2021/09/21 07:01:35;;;;;;;7.28;4.37;;;;;;;;;;4151074;34;20115;-66
2021/09/21 07:04:01;;;;;;;5.37;4.32;;;;;;;;;;4151239;34;20119;-66
2021/09/21 07:06:27;;;;;;;5.65;3.80;;;;;;;;;;4150789;34;20118;-66
2021/09/21 07:08:53;;;;;;;8.05;4.10;;;;;;;;;;4151065;34;20542;-64
2021/09/21 07:11:20;;;;;;;5.55;4.60;;;;;;;;;;4151021;34;20145;-64
2021/09/21 07:13:47;;;;;;;6.57;4.25;;;;;;;;;;4151078;34;20555;-65
2021/09/21 07:16:13;;;;;;;5.53;3.85;;;;;;;;;;4150953;34;20103;-65
2021/09/21 07:18:39;;;;;;;4.80;4.30;;;;;;;;;;4151080;34;20691;-64
2021/09/21 07:21:05;;;;;;;10.70;4.65;;;;;;;;;;4150959;34;20102;-66
2021/09/21 07:23:32;;;;;;;11.12;4.55;;;;;;;;;;4149539;34;20107;-65
2021/09/21 07:25:58;;;;;;;4.78;3.42;;;;;;;;;;4150617;34;20229;-66
2021/09/21 07:28:25;;;;;;;5.28;4.15;;;;;;;;;;4150862;34;20518;-66
2021/09/21 07:30:50;;;;;;;5.90;4.95;;;;;;;;;;4151133;34;20562;-65
2021/09/21 07:33:17;;;;;;;4.90;3.65;;;;;;;;;;4150993;34;20110;-70
2021/09/21 07:35:43;;;;;;;9.35;4.75;;;;;;;;;;4160679;34;20126;-71
2021/09/21 07:38:09;;;;;;;6.70;4.32;;;;;;;;;;4150841;34;20536;-70
2021/09/21 07:40:35;;;;;;;6.62;3.87;;;;;;;;;;4150773;34;20125;-69
2021/09/21 07:43:02;;;;;;;6.50;3.70;;;;;;;;;;4150821;34;20127;-69
2021/09/21 07:45:28;;;;;;;3.97;3.22;;;;;;;;;;4150674;34;20516;-70
2021/09/21 07:47:54;;;;;;;6.18;3.80;;;;;;;;;;4150977;34;20111;-70
2021/09/21 07:50:20;;;;;;;10.25;3.40;;;;;;;;;;4150750;34;20114;-70
2021/09/21 07:52:46;;;;;;;4.72;3.97;;;;;;;;;;4150672;34;20122;-69
2021/09/21 07:55:15;;;;;;;5.35;3.65;;;;;;;;;;4150892;34;20121;-69
2021/09/21 07:57:41;;;;;;;6.50;4.05;;;;;;;;;;4150565;34;20171;-69
2021/09/21 08:00:08;;;;;;;5.40;3.85;;;;;;;;;;4150686;34;20103;-70
2021/09/21 08:02:34;;;;;;;5.03;3.97;;;;;;;;;;4150827;34;20142;-70
2021/09/21 08:05:00;;;;;;;7.10;4.20;;;;;;;;;;4149249;34;20244;-69
2021/09/21 08:07:29;;;;;;;5.65;4.32;;;;;;;;;;4149114;34;20242;-68
2021/09/21 08:09:55;;;;;;;5.80;4.95;;;;;;;;;;4150641;34;20460;-69
2021/09/21 08:12:21;;;;;;;8.10;4.57;;;;;;;;;;4150603;34;20118;-69
2021/09/21 08:14:50;;;;;;;5.72;3.92;;;;;;;;;;4149515;34;20480;-70
2021/09/21 08:17:15;;;;;;;6.57;4.78;;;;;;;;;;4150214;34;20555;-70
2021/09/21 08:19:41;;;;;;;7.10;4.22;;;;;;;;;;4149443;34;20119;-68
2021/09/21 08:22:07;;;;;;;7.75;4.47;;;;;;;;;;4150101;34;20147;-68
2021/09/21 08:24:33;;;;;;;11.75;4.18;;;;;;;;;;4150243;34;20296;-68
2021/09/21 08:26:59;;;;;;;6.55;3.87;;;;;;;;;;4150437;34;20102;-68
2021/09/21 08:29:25;;;;;;;8.68;4.87;;;;;;;;;;4150485;34;20174;-69
2021/09/21 08:31:51;;;;;;;6.28;3.83;;;;;;;;;;4150228;34;20123;-69
2021/09/21 08:34:17;;;;;;;4.55;3.65;;;;;;;;;;4149253;34;20202;-69
2021/09/21 08:36:43;;;;;;;5.22;3.95;;;;;;;;;;4149595;34;20219;-69
2021/09/21 08:39:09;;;;;;;9.05;3.90;;;;;;;;;;4150466;34;20202;-71
2021/09/21 08:41:36;;;;;;;5.22;3.85;;;;;;;;;;4148828;34;20531;-67
2021/09/21 08:44:03;;;;;;;6.28;4.12;;;;;;;;;;4150435;34;20111;-67
2021/09/21 08:46:29;;;;;;;6.87;4.28;;;;;;;;;;4150365;34;20487;-67
2021/09/21 08:48:55;;;;;;;8.68;3.92;;;;;;;;;;4150318;34;20112;-67
2021/09/21 08:51:21;;;;;;;9.15;3.97;;;;;;;;;;4150414;34;20135;-68
2021/09/21 08:53:47;;;;;;;7.10;4.20;;;;;;;;;;4150614;34;20110;-68
2021/09/21 08:56:13;;;;;;;6.37;4.05;;;;;;;;;;4150025;34;20127;-68
2021/09/21 08:58:39;;;;;;;5.30;3.97;;;;;;;;;;4150226;34;20099;-67
2021/09/21 09:01:12;;;;;;;6.80;4.45;;;;;;;;;;4150193;34;20103;-67
2021/09/21 09:03:38;;;;;;;6.47;4.50;;;;;;;;;;4150290;34;20123;-67
2021/09/21 09:06:07;;;;;;;10.07;4.60;;;;;;;;;;4150117;34;20138;-67
2021/09/21 09:08:35;;;;;;;6.50;4.60;;;;;;;;;;4150093;34;20211;-65
2021/09/21 09:11:10;;;;;;;7.37;4.05;;;;;;;;;;4150444;34;20133;-65
2021/09/21 09:13:36;;;;;;;6.20;3.95;;;;;;;;;;4149990;34;20111;-65
2021/09/21 09:16:05;;;;;;;4.20;3.50;;;;;;;;;;4150045;34;20281;-65
2021/09/21 09:18:31;;;;;;;6.82;3.87;;;;;;;;;;4148644;34;20560;-65
2021/09/21 09:20:58;;;;;;;5.10;3.75;;;;;;;;;;4149927;34;20127;-65
2021/09/21 09:23:24;;;;;;;5.22;2.78;;;;;;;;;;4150198;34;20109;-66
2021/09/21 09:25:50;;;;;;;7.93;3.80;;;;;;;;;;4137428;34;20138;-66
2021/09/21 09:28:24;;;;;;;4.25;3.45;;;;;;;;;;4149935;34;20119;-65
2021/09/21 09:30:50;;;;;;;4.90;3.62;;;;;;;;;;4150145;34;20220;-65
2021/09/21 09:33:16;;;;;;;4.07;3.50;;;;;;;;;;4150193;34;20111;-67
2021/09/21 09:35:43;;;;;;;5.55;4.43;;;;;;;;;;4149932;34;20123;-70
2021/09/21 09:38:11;;;;;;;5.32;3.08;;;;;;;;;;4150130;34;20103;-74
2021/09/21 09:41:03;;;;;;;4.93;3.03;;;;;;;;;;4148477;34;20099;-71
2021/09/21 09:43:29;;;;;;;7.32;3.53;;;;;;;;;;4148772;34;20131;-72
2021/09/21 09:45:56;;;;;;;4.62;3.80;;;;;;;;;;4149786;34;20126;-71
2021/09/21 09:48:23;;;;;;;5.95;3.30;;;;;;;;;;4136989;34;20095;-71
2021/09/21 09:50:51;;;;;;;5.75;3.60;;;;;;;;;;4149732;34;20202;-70
2021/09/21 09:53:23;;;;;;;4.75;3.47;;;;;;;;;;4148352;34;20184;-70
2021/09/21 09:55:51;;;;;;;6.28;3.67;;;;;;;;;;4149690;34;20131;-72
2021/09/21 09:58:17;;;;;;;4.85;3.75;;;;;;;;;;4149550;34;20099;-70
2021/09/21 10:00:43;;;;;;;6.28;4.15;;;;;;;;;;4149659;34;20614;-71
2021/09/21 10:03:09;;;;;;;5.65;3.95;;;;;;;;;;4149586;34;20103;-71
2021/09/21 10:05:40;;;;;;;4.80;2.87;;;;;;;;;;4149833;34;20087;-70
2021/09/21 10:08:07;;;;;;;6.05;4.15;;;;;;;;;;4148066;34;20119;-68
2021/09/21 10:10:34;;;;;;;8.50;4.05;;;;;;;;;;4149549;34;20443;-67
2021/09/21 10:13:06;;;;;;;5.05;3.70;;;;;;;;;;4148346;34;20114;-66
2021/09/21 10:15:32;;;;;;;7.57;3.78;;;;;;;;;;4149393;34;20469;-66
2021/09/21 10:17:58;;;;;;;6.62;3.70;;;;;;;;;;4147260;34;20113;-66
2021/09/21 10:20:35;;;;;;;7.32;4.57;;;;;;;;;;4147387;34;20552;-65
2021/09/21 10:23:01;;;;;;;6.25;4.40;;;;;;;;;;4145919;34;20390;-65
2021/09/21 10:25:29;;;;;;;9.60;4.68;;;;;;;;;;4147306;34;20127;-65
2021/09/21 10:27:56;;;;;;;9.32;4.22;;;;;;;;;;4147591;34;20122;-65
2021/09/21 10:30:23;;;;;;;6.50;3.58;;;;;;;;;;4148275;34;20234;-66
2021/09/21 10:32:49;;;;;;;7.82;3.87;;;;;;;;;;4149067;34;20111;-65
2021/09/21 10:35:17;;;;;;;8.60;3.92;;;;;;;;;;4148033;34;20203;-65
2021/09/21 10:37:43;;;;;;;4.18;3.10;;;;;;;;;;4149259;34;20111;-65
2021/09/21 10:40:09;;;;;;;4.37;3.42;;;;;;;;;;4149225;34;20247;-66
2021/09/21 10:42:35;;;;;;;6.68;3.60;;;;;;;;;;4149259;34;20119;-65
2021/09/21 10:45:02;;;;;;;5.45;3.60;;;;;;;;;;4149358;34;20099;-66
2021/09/21 10:47:37;;;;;;;5.90;3.50;;;;;;;;;;4147726;34;20312;-66
2021/09/21 10:50:09;;;;;;;9.25;3.90;;;;;;;;;;4149412;34;20131;-65
2021/09/21 10:52:35;;;;;;;7.25;3.40;;;;;;;;;;4149225;34;20130;-66
2021/09/21 10:55:05;;;;;;;20.98;3.83;;;;;;;;;;4149254;34;20532;-66
2021/09/21 10:57:33;;;;;;;7.32;3.87;;;;;;;;;;4149127;34;20102;-66
2021/09/21 11:00:00;;;;;;;8.27;4.32;;;;;;;;;;4149743;34;20306;-66
2021/09/21 11:02:30;;;;;;;9.02;3.92;;;;;;;;;;4151284;34;20111;-65
2021/09/21 11:04:56;;;;;;;10.07;3.80;;;;;;;;;;4151570;34;20432;-65
2021/09/21 11:07:22;;;;;;;18.17;3.90;;;;;;;;;;4151090;34;20134;-66
2021/09/21 11:09:50;;;;;;;6.90;3.78;;;;;;;;;;4151091;34;20201;-66
2021/09/21 11:12:16;;;;;;;9.93;3.75;;;;;;;;;;4150902;34;20122;-66
2021/09/21 11:14:43;;;;;;;14.38;3.45;;;;;;;;;;4151185;34;20142;-65
2021/09/21 11:17:10;;;;;;;9.90;3.90;;;;;;;;;;4150952;34;20103;-65
2021/09/21 11:19:36;;;;;;;12.18;4.03;;;;;;;;;;4151200;34;20110;-65
2021/09/21 11:22:04;;;;;;;5.75;3.05;;;;;;;;;;4149824;34;20341;-66
2021/09/21 11:24:31;;;;;;;11.88;3.85;;;;;;;;;;4151082;34;20122;-66
2021/09/21 11:27:03;;;;;;;11.32;3.62;;;;;;;;;;4150909;34;20210;-65
2021/09/21 11:29:29;;;;;;;5.35;3.30;;;;;;;;;;4150947;34;20162;-66
2021/09/21 11:31:55;;;;;;;7.53;3.35;;;;;;;;;;4150882;34;20206;-66
2021/09/21 11:34:28;;;;;;;7.15;3.37;;;;;;;;;;4151231;34;20111;-65
2021/09/21 11:36:54;;;;;;;9.55;3.40;;;;;;;;;;4138804;34;20126;-65
2021/09/21 11:39:20;;;;;;;17.40;3.87;;;;;;;;;;4150477;34;20127;-66
2021/09/21 11:41:52;;;;;;;9.95;3.90;;;;;;;;;;4150827;34;20305;-66
2021/09/21 11:44:18;;;;;;;14.82;3.95;;;;;;;;;;4147750;34;20118;-65
2021/09/21 11:46:44;;;;;;;15.88;5.00;;;;;;;;;;4150047;34;20610;-63
2021/09/21 11:49:10;;;;;;;15.70;5.10;;;;;;;;;;4140248;34;20143;-64
2021/09/21 11:51:38;;;;;;;13.73;4.50;;;;;;;;;;4137405;34;20542;-63
2021/09/21 11:54:04;;;;;;;9.45;4.10;;;;;;;;;;4137133;34;20116;-63
2021/09/21 11:56:30;;;;;;;10.18;4.00;;;;;;;;;;4135942;34;20579;-63
2021/09/21 11:58:57;;;;;;;9.45;4.15;;;;;;;;;;4147289;34;20131;-63
2021/09/21 12:01:23;;;;;;;7.20;3.85;;;;;;;;;;4150848;34;20107;-64
2021/09/21 12:03:54;;;;;;;7.28;3.95;;;;;;;;;;4150774;34;20149;-64
2021/09/21 12:06:31;;;;;;;24.15;4.43;;;;;;;;;;4150215;34;20108;-63
2021/09/21 12:08:59;;;;;;;10.65;4.05;;;;;;;;;;4149026;34;20197;-64
2021/09/21 12:11:25;;;;;;;12.65;3.70;;;;;;;;;;4149154;34;20099;-62
2021/09/21 12:13:52;;;;;;;11.48;3.92;;;;;;;;;;4150442;34;20293;-63
2021/09/21 12:16:19;;;;;;;7.87;3.72;;;;;;;;;;4150354;34;20127;-63
2021/09/21 12:18:46;;;;;;;9.50;4.18;;;;;;;;;;4150415;34;20266;-63
2021/09/21 12:21:16;;;;;;;17.15;5.18;;;;;;;;;;4150730;34;20207;-64
2021/09/21 12:23:43;;;;;;;8.10;3.65;;;;;;;;;;4150499;34;20122;-64
2021/09/21 12:26:09;;;;;;;18.95;4.22;;;;;;;;;;4150326;34;20539;-64
2021/09/21 12:28:40;;;;;;;15.35;4.12;;;;;;;;;;4149479;34;20114;-64
2021/09/21 12:31:22;;;;;;;13.77;4.53;;;;;;;;;;4150686;34;20174;-63
2021/09/21 12:33:48;;;;;;;13.60;4.35;;;;;;;;;;4150437;34;20115;-63
2021/09/21 12:36:22;;;;;;;12.80;4.32;;;;;;;;;;4150455;34;20491;-64
2021/09/21 12:39:05;;;;;;;12.40;4.32;;;;;;;;;;4150199;34;20126;-67
2021/09/21 12:41:33;;;;;;;14.95;4.30;;;;;;;;;;4149684;34;20171;-71
2021/09/21 12:44:00;;;;;;;16.87;4.53;;;;;;;;;;4149158;34;20115;-70
2021/09/21 12:46:29;;;;;;;7.70;3.90;;;;;;;;;;4148774;34;20531;-70
2021/09/21 12:48:56;;;;;;;7.00;4.65;;;;;;;;;;4143786;34;20126;-70
2021/09/21 12:51:32;;;;;;;8.70;4.15;;;;;;;;;;4144690;34;20143;-72
2021/09/21 12:54:02;;;;;;;14.32;4.55;;;;;;;;;;4149272;34;20579;-70
2021/09/21 12:56:29;;;;;;;11.27;4.50;;;;;;;;;;4150335;34;20187;-70
2021/09/21 12:59:09;;;;;;;6.60;3.83;;;;;;;;;;4139929;34;20114;-70
2021/09/21 13:01:35;;;;;;;16.35;4.18;;;;;;;;;;4142897;34;20104;-70
2021/09/21 13:04:01;;;;;;;11.63;4.40;;;;;;;;;;4150399;34;20095;-69
2021/09/21 13:06:27;;;;;;;8.75;4.28;;;;;;;;;;4150391;34;20519;-67
2021/09/21 13:08:53;;;;;;;7.50;3.55;;;;;;;;;;4150254;34;20203;-66
2021/09/21 13:11:19;;;;;;;7.40;4.62;;;;;;;;;;4150100;34;20146;-66
2021/09/21 13:13:45;;;;;;;12.13;4.70;;;;;;;;;;4149887;34;20124;-66
2021/09/21 13:16:11;;;;;;;7.20;4.15;;;;;;;;;;4150218;34;20456;-65
2021/09/21 13:18:39;;;;;;;16.95;6.00;;;;;;;;;;4144467;34;20111;-66
2021/09/21 13:21:05;;;;;;;6.93;4.22;;;;;;;;;;4136696;34;20103;-66
2021/09/21 13:23:31;;;;;;;11.20;4.18;;;;;;;;;;4142914;34;20099;-65
2021/09/21 13:25:57;;;;;;;7.18;3.70;;;;;;;;;;4150035;34;20523;-65
2021/09/21 13:28:23;;;;;;;11.85;4.30;;;;;;;;;;4150486;34;20429;-65
2021/09/21 13:30:50;;;;;;;9.75;4.12;;;;;;;;;;4148789;34;20219;-65
2021/09/21 13:33:19;;;;;;;7.03;3.42;;;;;;;;;;4147643;34;20103;-65
2021/09/21 13:35:45;;;;;;;7.53;4.00;;;;;;;;;;4149908;34;20122;-65
2021/09/21 13:38:11;;;;;;;6.40;3.80;;;;;;;;;;4137848;34;20225;-64
2021/09/21 13:40:38;;;;;;;6.82;3.25;;;;;;;;;;4142573;34;20547;-65
2021/09/21 13:43:04;;;;;;;8.32;3.47;;;;;;;;;;4149554;34;20520;-62
2021/09/21 13:45:30;;;;;;;10.32;4.35;;;;;;;;;;4149642;34;20092;-64
2021/09/21 13:47:57;;;;;;;8.05;4.07;;;;;;;;;;4149647;34;20566;-65
2021/09/21 13:50:23;;;;;;;8.52;3.70;;;;;;;;;;4149692;34;20142;-65
2021/09/21 13:52:49;;;;;;;21.05;10.40;;;;;;;;;;4149616;34;20582;-64
2021/09/21 13:55:15;;;;;;;10.27;3.70;;;;;;;;;;4149585;34;20099;-65
2021/09/21 13:57:41;;;;;;;10.52;3.92;;;;;;;;;;4149177;34;20531;-65
2021/09/21 14:00:10;;;;;;;6.03;3.67;;;;;;;;;;4149462;34;20107;-65
2021/09/21 14:02:38;;;;;;;8.35;3.95;;;;;;;;;;4146809;34;20125;-65
2021/09/21 14:05:04;;;;;;;7.65;3.75;;;;;;;;;;4149550;34;20099;-65
2021/09/21 14:07:30;;;;;;;6.35;3.60;;;;;;;;;;4142255;34;20103;-65
2021/09/21 14:09:57;;;;;;;9.45;3.90;;;;;;;;;;4134605;34;20119;-66
2021/09/21 14:12:23;;;;;;;7.62;3.92;;;;;;;;;;4135683;34;20122;-64
2021/09/21 14:14:50;;;;;;;17.65;4.28;;;;;;;;;;4136013;34;20618;-65
2021/09/21 14:17:16;;;;;;;14.90;3.60;;;;;;;;;;4143703;34;20531;-65
2021/09/21 14:19:42;;;;;;;6.05;3.75;;;;;;;;;;4149518;34;20096;-66
2021/09/21 14:22:08;;;;;;;7.82;3.80;;;;;;;;;;4148787;34;20123;-65
2021/09/21 14:24:34;;;;;;;6.32;3.72;;;;;;;;;;4149602;34;20125;-66
2021/09/21 14:27:01;;;;;;;5.55;3.12;;;;;;;;;;4149192;34;20552;-65
2021/09/21 14:29:27;;;;;;;5.25;3.20;;;;;;;;;;4149324;34;20112;-65
2021/09/21 14:31:53;;;;;;;7.37;3.35;;;;;;;;;;4145230;34;20170;-65
2021/09/21 14:34:19;;;;;;;7.50;3.50;;;;;;;;;;4148492;34;20098;-65
2021/09/21 14:36:45;;;;;;;10.35;4.03;;;;;;;;;;4147878;34;20211;-64
2021/09/21 14:39:11;;;;;;;12.35;4.70;;;;;;;;;;4137886;34;20515;-64
2021/09/21 14:41:37;;;;;;;7.45;4.22;;;;;;;;;;4137900;34;20119;-64
2021/09/21 14:44:03;;;;;;;9.15;5.00;;;;;;;;;;4142854;34;20504;-64
2021/09/21 14:46:30;;;;;;;11.75;5.12;;;;;;;;;;4151053;34;20123;-64
2021/09/21 14:48:57;;;;;;;11.75;4.72;;;;;;;;;;4151499;34;20492;-64
2021/09/21 14:51:24;;;;;;;13.38;4.68;;;;;;;;;;4151030;34;20577;-64
2021/09/21 14:53:50;;;;;;;8.40;4.55;;;;;;;;;;4150433;34;20448;-64
2021/09/21 14:56:18;;;;;;;8.57;4.50;;;;;;;;;;4150769;34;20194;-64
2021/09/21 14:58:45;;;;;;;7.53;4.97;;;;;;;;;;4151444;34;20119;-63
2021/09/21 15:01:12;;;;;;;12.98;4.93;;;;;;;;;;4151214;34;20118;-63
2021/09/21 15:03:38;;;;;;;17.40;4.70;;;;;;;;;;4151187;34;20119;-63